sensor_id;sensor_type;location;lat;lon;timestamp;P1;durP1;ratioP1;P2;durP2;ratioP2
55007;SDS011;40902;45.116;21.296;2023-04-24T00:00:53;8.18;;;5.35;;
55007;SDS011;40902;45.116;21.296;2023-04-24T00:03:21;8.02;;;5.43;;
55007;SDS011;40902;45.116;21.296;2023-04-24T00:05:48;7.55;;;5.50;;
55007;SDS011;40902;45.116;21.296;2023-04-24T00:08:13;9.95;;;5.55;;
55007;SDS011;40902;45.116;21.296;2023-04-24T00:10:39;8.23;;;5.07;;
55007;SDS011;40902;45.116;21.296;2023-04-24T00:13:05;8.45;;;5.53;;
55007;SDS011;40902;45.116;21.296;2023-04-24T00:15:31;8.68;;;5.18;;
55007;SDS011;40902;45.116;21.296;2023-04-24T00:17:57;10.50;;;5.50;;
55007;SDS011;40902;45.116;21.296;2023-04-24T00:20:23;8.43;;;5.60;;
55007;SDS011;40902;45.116;21.296;2023-04-24T00:22:48;10.30;;;5.85;;
55007;SDS011;40902;45.116;21.296;2023-04-24T00:25:14;9.00;;;5.30;;
55007;SDS011;40902;45.116;21.296;2023-04-24T00:27:40;9.18;;;5.60;;
55007;SDS011;40902;45.116;21.296;2023-04-24T00:30:06;10.48;;;5.60;;
55007;SDS011;40902;45.116;21.296;2023-04-24T00:32:32;8.05;;;5.72;;
55007;SDS011;40902;45.116;21.296;2023-04-24T00:34:58;8.85;;;5.40;;
55007;SDS011;40902;45.116;21.296;2023-04-24T00:37:23;7.25;;;5.30;;
55007;SDS011;40902;45.116;21.296;2023-04-24T00:39:49;8.55;;;5.65;;
55007;SDS011;40902;45.116;21.296;2023-04-24T00:42:15;6.32;;;5.05;;
55007;SDS011;40902;45.116;21.296;2023-04-24T00:44:40;10.50;;;5.75;;
55007;SDS011;40902;45.116;21.296;2023-04-24T00:47:06;8.70;;;5.35;;
55007;SDS011;40902;45.116;21.296;2023-04-24T00:49:32;8.50;;;5.15;;
55007;SDS011;40902;45.116;21.296;2023-04-24T00:51:58;5.63;;;4.95;;
55007;SDS011;40902;45.116;21.296;2023-04-24T00:54:24;8.70;;;5.15;;
55007;SDS011;40902;45.116;21.296;2023-04-24T00:56:50;9.75;;;5.18;;
55007;SDS011;40902;45.116;21.296;2023-04-24T00:59:16;8.70;;;5.07;;
55007;SDS011;40902;45.116;21.296;2023-04-24T01:01:43;7.68;;;5.13;;
55007;SDS011;40902;45.116;21.296;2023-04-24T01:04:09;8.60;;;5.18;;
55007;SDS011;40902;45.116;21.296;2023-04-24T01:06:38;7.22;;;5.00;;
55007;SDS011;40902;45.116;21.296;2023-04-24T01:09:04;8.65;;;5.40;;
55007;SDS011;40902;45.116;21.296;2023-04-24T01:11:30;6.70;;;4.63;;
55007;SDS011;40902;45.116;21.296;2023-04-24T01:13:56;10.80;;;5.03;;
55007;SDS011;40902;45.116;21.296;2023-04-24T01:16:23;8.20;;;5.22;;
55007;SDS011;40902;45.116;21.296;2023-04-24T01:18:49;8.93;;;5.20;;
55007;SDS011;40902;45.116;21.296;2023-04-24T01:21:16;8.48;;;5.47;;
55007;SDS011;40902;45.116;21.296;2023-04-24T01:23:43;7.72;;;5.47;;
55007;SDS011;40902;45.116;21.296;2023-04-24T01:26:09;10.07;;;5.93;;
55007;SDS011;40902;45.116;21.296;2023-04-24T01:28:36;8.75;;;4.97;;
55007;SDS011;40902;45.116;21.296;2023-04-24T01:31:02;9.02;;;6.00;;
55007;SDS011;40902;45.116;21.296;2023-04-24T01:33:28;8.32;;;5.20;;
55007;SDS011;40902;45.116;21.296;2023-04-24T01:35:54;8.32;;;5.45;;
55007;SDS011;40902;45.116;21.296;2023-04-24T01:38:20;6.80;;;5.07;;
55007;SDS011;40902;45.116;21.296;2023-04-24T01:40:46;8.27;;;4.88;;
55007;SDS011;40902;45.116;21.296;2023-04-24T01:43:11;7.78;;;5.80;;
55007;SDS011;40902;45.116;21.296;2023-04-24T01:45:37;7.97;;;5.95;;
55007;SDS011;40902;45.116;21.296;2023-04-24T01:48:03;7.28;;;5.43;;
55007;SDS011;40902;45.116;21.296;2023-04-24T01:50:30;8.45;;;5.95;;
55007;SDS011;40902;45.116;21.296;2023-04-24T01:52:55;9.70;;;6.20;;
55007;SDS011;40902;45.116;21.296;2023-04-24T01:55:21;9.18;;;5.95;;
55007;SDS011;40902;45.116;21.296;2023-04-24T01:57:47;10.02;;;5.65;;
55007;SDS011;40902;45.116;21.296;2023-04-24T02:00:13;8.52;;;5.57;;
55007;SDS011;40902;45.116;21.296;2023-04-24T02:02:40;9.98;;;5.82;;
55007;SDS011;40902;45.116;21.296;2023-04-24T02:05:06;8.40;;;5.55;;
55007;SDS011;40902;45.116;21.296;2023-04-24T02:07:32;6.75;;;5.20;;
55007;SDS011;40902;45.116;21.296;2023-04-24T02:09:58;8.00;;;5.65;;
55007;SDS011;40902;45.116;21.296;2023-04-24T02:12:24;7.32;;;5.20;;
55007;SDS011;40902;45.116;21.296;2023-04-24T02:14:50;8.15;;;5.55;;
55007;SDS011;40902;45.116;21.296;2023-04-24T02:17:15;7.63;;;5.38;;
55007;SDS011;40902;45.116;21.296;2023-04-24T02:19:42;7.25;;;5.07;;
55007;SDS011;40902;45.116;21.296;2023-04-24T02:22:08;7.45;;;5.20;;
55007;SDS011;40902;45.116;21.296;2023-04-24T02:24:33;7.70;;;5.10;;
55007;SDS011;40902;45.116;21.296;2023-04-24T02:26:59;8.32;;;5.15;;
55007;SDS011;40902;45.116;21.296;2023-04-24T02:29:25;10.43;;;5.80;;
55007;SDS011;40902;45.116;21.296;2023-04-24T02:31:51;7.00;;;5.20;;
55007;SDS011;40902;45.116;21.296;2023-04-24T02:34:16;9.02;;;4.95;;
55007;SDS011;40902;45.116;21.296;2023-04-24T02:36:42;6.22;;;4.72;;
55007;SDS011;40902;45.116;21.296;2023-04-24T02:39:08;7.18;;;4.80;;
55007;SDS011;40902;45.116;21.296;2023-04-24T02:41:33;7.03;;;5.20;;
55007;SDS011;40902;45.116;21.296;2023-04-24T02:43:59;5.88;;;4.70;;
55007;SDS011;40902;45.116;21.296;2023-04-24T02:46:25;8.10;;;4.85;;
55007;SDS011;40902;45.116;21.296;2023-04-24T02:48:51;7.45;;;5.05;;
55007;SDS011;40902;45.116;21.296;2023-04-24T02:51:17;8.88;;;4.93;;
55007;SDS011;40902;45.116;21.296;2023-04-24T02:53:42;8.93;;;5.00;;
55007;SDS011;40902;45.116;21.296;2023-04-24T02:56:08;9.07;;;5.05;;
55007;SDS011;40902;45.116;21.296;2023-04-24T02:58:37;6.85;;;4.78;;
55007;SDS011;40902;45.116;21.296;2023-04-24T03:01:03;6.68;;;4.95;;
55007;SDS011;40902;45.116;21.296;2023-04-24T03:03:28;9.93;;;5.60;;
55007;SDS011;40902;45.116;21.296;2023-04-24T03:05:55;6.78;;;5.10;;
55007;SDS011;40902;45.116;21.296;2023-04-24T03:08:20;7.80;;;4.97;;
55007;SDS011;40902;45.116;21.296;2023-04-24T03:10:46;9.07;;;5.32;;
55007;SDS011;40902;45.116;21.296;2023-04-24T03:13:12;9.93;;;5.82;;
55007;SDS011;40902;45.116;21.296;2023-04-24T03:15:37;7.13;;;5.28;;
55007;SDS011;40902;45.116;21.296;2023-04-24T03:18:03;8.93;;;6.10;;
55007;SDS011;40902;45.116;21.296;2023-04-24T03:20:29;9.25;;;5.70;;
55007;SDS011;40902;45.116;21.296;2023-04-24T03:22:54;9.05;;;5.63;;
55007;SDS011;40902;45.116;21.296;2023-04-24T03:25:21;11.68;;;5.80;;
55007;SDS011;40902;45.116;21.296;2023-04-24T03:27:47;10.05;;;6.15;;
55007;SDS011;40902;45.116;21.296;2023-04-24T03:30:12;7.65;;;6.07;;
55007;SDS011;40902;45.116;21.296;2023-04-24T03:32:38;10.38;;;6.13;;
55007;SDS011;40902;45.116;21.296;2023-04-24T03:35:05;9.95;;;6.03;;
55007;SDS011;40902;45.116;21.296;2023-04-24T03:37:32;8.55;;;5.88;;
55007;SDS011;40902;45.116;21.296;2023-04-24T03:39:58;8.10;;;6.30;;
55007;SDS011;40902;45.116;21.296;2023-04-24T03:42:24;8.35;;;6.20;;
55007;SDS011;40902;45.116;21.296;2023-04-24T03:44:49;9.70;;;6.35;;
55007;SDS011;40902;45.116;21.296;2023-04-24T03:47:15;8.23;;;5.80;;
55007;SDS011;40902;45.116;21.296;2023-04-24T03:49:40;10.98;;;6.57;;
55007;SDS011;40902;45.116;21.296;2023-04-24T03:52:06;8.23;;;6.22;;
55007;SDS011;40902;45.116;21.296;2023-04-24T03:54:32;9.13;;;6.10;;
55007;SDS011;40902;45.116;21.296;2023-04-24T03:56:57;8.30;;;6.10;;
55007;SDS011;40902;45.116;21.296;2023-04-24T03:59:23;8.32;;;5.63;;
55007;SDS011;40902;45.116;21.296;2023-04-24T04:01:49;8.43;;;5.50;;
55007;SDS011;40902;45.116;21.296;2023-04-24T04:04:15;6.97;;;5.30;;
55007;SDS011;40902;45.116;21.296;2023-04-24T04:06:41;7.43;;;5.47;;
55007;SDS011;40902;45.116;21.296;2023-04-24T04:09:07;7.40;;;5.40;;
55007;SDS011;40902;45.116;21.296;2023-04-24T04:11:33;8.73;;;5.65;;
55007;SDS011;40902;45.116;21.296;2023-04-24T04:14:00;9.10;;;5.80;;
55007;SDS011;40902;45.116;21.296;2023-04-24T04:16:26;7.38;;;5.30;;
55007;SDS011;40902;45.116;21.296;2023-04-24T04:18:52;8.73;;;5.57;;
55007;SDS011;40902;45.116;21.296;2023-04-24T04:21:17;9.00;;;5.18;;
55007;SDS011;40902;45.116;21.296;2023-04-24T04:23:43;6.60;;;5.30;;
55007;SDS011;40902;45.116;21.296;2023-04-24T04:26:09;9.02;;;5.18;;
55007;SDS011;40902;45.116;21.296;2023-04-24T04:28:36;7.10;;;5.20;;
55007;SDS011;40902;45.116;21.296;2023-04-24T04:31:02;8.18;;;4.95;;
55007;SDS011;40902;45.116;21.296;2023-04-24T04:33:28;8.00;;;4.80;;
55007;SDS011;40902;45.116;21.296;2023-04-24T04:35:54;13.32;;;6.07;;
55007;SDS011;40902;45.116;21.296;2023-04-24T04:38:23;7.45;;;5.70;;
55007;SDS011;40902;45.116;21.296;2023-04-24T04:40:49;7.93;;;5.55;;
55007;SDS011;40902;45.116;21.296;2023-04-24T04:43:15;7.40;;;5.65;;
55007;SDS011;40902;45.116;21.296;2023-04-24T04:45:41;8.13;;;5.55;;
55007;SDS011;40902;45.116;21.296;2023-04-24T04:48:09;10.07;;;6.95;;
55007;SDS011;40902;45.116;21.296;2023-04-24T04:50:37;9.32;;;6.40;;
55007;SDS011;40902;45.116;21.296;2023-04-24T04:53:03;8.95;;;6.10;;
55007;SDS011;40902;45.116;21.296;2023-04-24T04:55:29;8.85;;;5.88;;
55007;SDS011;40902;45.116;21.296;2023-04-24T04:57:55;7.75;;;5.60;;
55007;SDS011;40902;45.116;21.296;2023-04-24T05:00:21;9.50;;;6.63;;
55007;SDS011;40902;45.116;21.296;2023-04-24T05:02:50;8.60;;;6.10;;
55007;SDS011;40902;45.116;21.296;2023-04-24T05:05:16;8.15;;;5.72;;
55007;SDS011;40902;45.116;21.296;2023-04-24T05:07:42;9.43;;;5.38;;
55007;SDS011;40902;45.116;21.296;2023-04-24T05:10:08;9.13;;;5.90;;
55007;SDS011;40902;45.116;21.296;2023-04-24T05:12:34;8.38;;;5.90;;
55007;SDS011;40902;45.116;21.296;2023-04-24T05:15:00;9.50;;;5.80;;
55007;SDS011;40902;45.116;21.296;2023-04-24T05:17:26;9.95;;;6.10;;
55007;SDS011;40902;45.116;21.296;2023-04-24T05:19:52;8.48;;;5.88;;
55007;SDS011;40902;45.116;21.296;2023-04-24T05:22:17;10.30;;;5.72;;
55007;SDS011;40902;45.116;21.296;2023-04-24T05:24:45;9.18;;;6.18;;
55007;SDS011;40902;45.116;21.296;2023-04-24T05:27:12;13.13;;;6.32;;
55007;SDS011;40902;45.116;21.296;2023-04-24T05:29:37;10.73;;;5.80;;
55007;SDS011;40902;45.116;21.296;2023-04-24T05:32:03;11.68;;;5.80;;
55007;SDS011;40902;45.116;21.296;2023-04-24T05:34:29;8.35;;;5.72;;
55007;SDS011;40902;45.116;21.296;2023-04-24T05:36:55;8.13;;;6.22;;
55007;SDS011;40902;45.116;21.296;2023-04-24T05:39:20;8.45;;;5.38;;
55007;SDS011;40902;45.116;21.296;2023-04-24T05:41:46;13.02;;;8.20;;
55007;SDS011;40902;45.116;21.296;2023-04-24T05:44:12;13.70;;;8.50;;
55007;SDS011;40902;45.116;21.296;2023-04-24T05:46:38;15.88;;;10.00;;
55007;SDS011;40902;45.116;21.296;2023-04-24T05:49:03;14.98;;;9.48;;
55007;SDS011;40902;45.116;21.296;2023-04-24T05:51:29;15.48;;;10.15;;
55007;SDS011;40902;45.116;21.296;2023-04-24T05:53:56;14.20;;;10.10;;
55007;SDS011;40902;45.116;21.296;2023-04-24T05:56:22;17.58;;;10.10;;
55007;SDS011;40902;45.116;21.296;2023-04-24T05:58:48;11.98;;;9.10;;
55007;SDS011;40902;45.116;21.296;2023-04-24T06:01:14;14.88;;;9.45;;
55007;SDS011;40902;45.116;21.296;2023-04-24T06:03:40;14.52;;;8.85;;
55007;SDS011;40902;45.116;21.296;2023-04-24T06:06:07;12.52;;;7.88;;
55007;SDS011;40902;45.116;21.296;2023-04-24T06:08:33;10.70;;;8.50;;
55007;SDS011;40902;45.116;21.296;2023-04-24T06:10:59;15.05;;;8.02;;
55007;SDS011;40902;45.116;21.296;2023-04-24T06:13:25;14.32;;;8.20;;
55007;SDS011;40902;45.116;21.296;2023-04-24T06:15:51;13.48;;;8.68;;
55007;SDS011;40902;45.116;21.296;2023-04-24T06:18:17;12.80;;;7.95;;
55007;SDS011;40902;45.116;21.296;2023-04-24T06:20:43;9.60;;;7.72;;
55007;SDS011;40902;45.116;21.296;2023-04-24T06:23:08;10.68;;;7.47;;
55007;SDS011;40902;45.116;21.296;2023-04-24T06:25:34;12.65;;;7.75;;
55007;SDS011;40902;45.116;21.296;2023-04-24T06:28:00;10.52;;;7.85;;
55007;SDS011;40902;45.116;21.296;2023-04-24T06:30:27;11.65;;;7.68;;
55007;SDS011;40902;45.116;21.296;2023-04-24T06:32:53;9.45;;;7.32;;
55007;SDS011;40902;45.116;21.296;2023-04-24T06:35:19;9.20;;;7.75;;
55007;SDS011;40902;45.116;21.296;2023-04-24T06:37:46;8.38;;;7.22;;
55007;SDS011;40902;45.116;21.296;2023-04-24T06:40:12;10.65;;;7.43;;
55007;SDS011;40902;45.116;21.296;2023-04-24T06:42:38;9.52;;;7.30;;
55007;SDS011;40902;45.116;21.296;2023-04-24T06:45:04;10.68;;;7.45;;
55007;SDS011;40902;45.116;21.296;2023-04-24T06:47:30;9.93;;;6.93;;
55007;SDS011;40902;45.116;21.296;2023-04-24T06:49:57;9.00;;;7.50;;
55007;SDS011;40902;45.116;21.296;2023-04-24T06:52:23;9.70;;;7.70;;
55007;SDS011;40902;45.116;21.296;2023-04-24T06:54:49;9.73;;;7.28;;
55007;SDS011;40902;45.116;21.296;2023-04-24T06:57:15;10.95;;;7.68;;
55007;SDS011;40902;45.116;21.296;2023-04-24T06:59:42;15.07;;;7.55;;
55007;SDS011;40902;45.116;21.296;2023-04-24T07:02:08;9.32;;;7.55;;
55007;SDS011;40902;45.116;21.296;2023-04-24T07:04:34;10.38;;;8.15;;
55007;SDS011;40902;45.116;21.296;2023-04-24T07:07:00;9.50;;;7.80;;
55007;SDS011;40902;45.116;21.296;2023-04-24T07:09:27;13.55;;;8.10;;
55007;SDS011;40902;45.116;21.296;2023-04-24T07:11:53;11.05;;;8.40;;
55007;SDS011;40902;45.116;21.296;2023-04-24T07:14:21;11.50;;;7.95;;
55007;SDS011;40902;45.116;21.296;2023-04-24T07:16:47;10.15;;;7.65;;
55007;SDS011;40902;45.116;21.296;2023-04-24T07:19:14;10.77;;;8.55;;
55007;SDS011;40902;45.116;21.296;2023-04-24T07:21:40;13.52;;;8.55;;
55007;SDS011;40902;45.116;21.296;2023-04-24T07:24:06;8.98;;;8.02;;
55007;SDS011;40902;45.116;21.296;2023-04-24T07:26:35;9.90;;;7.53;;
55007;SDS011;40902;45.116;21.296;2023-04-24T07:29:02;10.90;;;7.55;;
55007;SDS011;40902;45.116;21.296;2023-04-24T07:31:28;10.63;;;7.60;;
55007;SDS011;40902;45.116;21.296;2023-04-24T07:33:54;8.73;;;7.38;;
55007;SDS011;40902;45.116;21.296;2023-04-24T07:36:22;9.25;;;7.00;;
55007;SDS011;40902;45.116;21.296;2023-04-24T07:38:49;10.52;;;7.30;;
55007;SDS011;40902;45.116;21.296;2023-04-24T07:41:15;8.40;;;6.90;;
55007;SDS011;40902;45.116;21.296;2023-04-24T07:43:41;9.77;;;7.53;;
55007;SDS011;40902;45.116;21.296;2023-04-24T07:46:07;9.32;;;7.72;;
55007;SDS011;40902;45.116;21.296;2023-04-24T07:48:34;9.15;;;7.75;;
55007;SDS011;40902;45.116;21.296;2023-04-24T07:51:00;9.32;;;7.05;;
55007;SDS011;40902;45.116;21.296;2023-04-24T07:53:25;9.45;;;7.10;;
55007;SDS011;40902;45.116;21.296;2023-04-24T07:55:51;8.95;;;7.22;;
55007;SDS011;40902;45.116;21.296;2023-04-24T07:58:17;9.13;;;6.68;;
55007;SDS011;40902;45.116;21.296;2023-04-24T08:00:43;8.50;;;7.00;;
55007;SDS011;40902;45.116;21.296;2023-04-24T08:03:08;7.90;;;6.63;;
55007;SDS011;40902;45.116;21.296;2023-04-24T08:05:34;9.10;;;6.55;;
55007;SDS011;40902;45.116;21.296;2023-04-24T08:08:00;7.90;;;6.43;;
55007;SDS011;40902;45.116;21.296;2023-04-24T08:10:25;9.98;;;6.50;;
55007;SDS011;40902;45.116;21.296;2023-04-24T08:12:51;8.57;;;6.43;;
55007;SDS011;40902;45.116;21.296;2023-04-24T08:15:17;7.93;;;6.50;;
55007;SDS011;40902;45.116;21.296;2023-04-24T08:17:43;9.73;;;6.70;;
55007;SDS011;40902;45.116;21.296;2023-04-24T08:20:09;11.70;;;7.30;;
55007;SDS011;40902;45.116;21.296;2023-04-24T08:22:42;10.85;;;6.60;;
55007;SDS011;40902;45.116;21.296;2023-04-24T08:25:08;7.43;;;6.40;;
55007;SDS011;40902;45.116;21.296;2023-04-24T08:27:35;7.75;;;6.53;;
55007;SDS011;40902;45.116;21.296;2023-04-24T08:30:04;9.80;;;6.75;;
55007;SDS011;40902;45.116;21.296;2023-04-24T08:32:30;8.65;;;6.25;;
55007;SDS011;40902;45.116;21.296;2023-04-24T08:34:56;10.90;;;6.47;;
55007;SDS011;40902;45.116;21.296;2023-04-24T08:37:23;8.48;;;6.53;;
55007;SDS011;40902;45.116;21.296;2023-04-24T08:39:49;10.43;;;7.15;;
55007;SDS011;40902;45.116;21.296;2023-04-24T08:42:15;9.15;;;6.60;;
55007;SDS011;40902;45.116;21.296;2023-04-24T08:44:42;8.80;;;6.28;;
55007;SDS011;40902;45.116;21.296;2023-04-24T08:47:09;8.55;;;6.80;;
55007;SDS011;40902;45.116;21.296;2023-04-24T08:49:36;7.55;;;6.72;;
55007;SDS011;40902;45.116;21.296;2023-04-24T08:52:02;9.38;;;6.63;;
55007;SDS011;40902;45.116;21.296;2023-04-24T08:54:29;10.32;;;6.60;;
55007;SDS011;40902;45.116;21.296;2023-04-24T08:56:59;9.07;;;6.35;;
55007;SDS011;40902;45.116;21.296;2023-04-24T08:59:26;9.05;;;6.85;;
55007;SDS011;40902;45.116;21.296;2023-04-24T09:01:52;8.90;;;7.03;;
55007;SDS011;40902;45.116;21.296;2023-04-24T09:04:20;11.60;;;6.72;;
55007;SDS011;40902;45.116;21.296;2023-04-24T09:06:48;8.77;;;6.30;;
55007;SDS011;40902;45.116;21.296;2023-04-24T09:09:14;10.82;;;6.50;;
55007;SDS011;40902;45.116;21.296;2023-04-24T09:11:43;9.50;;;6.50;;
55007;SDS011;40902;45.116;21.296;2023-04-24T09:14:09;7.57;;;5.95;;
55007;SDS011;40902;45.116;21.296;2023-04-24T09:16:35;9.63;;;6.53;;
55007;SDS011;40902;45.116;21.296;2023-04-24T09:19:01;12.18;;;6.85;;
55007;SDS011;40902;45.116;21.296;2023-04-24T09:21:31;7.80;;;5.93;;
55007;SDS011;40902;45.116;21.296;2023-04-24T09:24:06;9.57;;;6.00;;
55007;SDS011;40902;45.116;21.296;2023-04-24T09:26:34;8.55;;;6.32;;
55007;SDS011;40902;45.116;21.296;2023-04-24T09:29:01;10.80;;;6.07;;
55007;SDS011;40902;45.116;21.296;2023-04-24T09:31:28;8.45;;;6.00;;
55007;SDS011;40902;45.116;21.296;2023-04-24T09:33:56;7.00;;;5.95;;
55007;SDS011;40902;45.116;21.296;2023-04-24T09:36:29;8.07;;;5.82;;
55007;SDS011;40902;45.116;21.296;2023-04-24T09:39:02;7.43;;;6.63;;
55007;SDS011;40902;45.116;21.296;2023-04-24T09:41:33;8.77;;;6.47;;
55007;SDS011;40902;45.116;21.296;2023-04-24T09:46:59;11.77;;;7.03;;
55007;SDS011;40902;45.116;21.296;2023-04-24T09:49:31;10.15;;;6.43;;
55007;SDS011;40902;45.116;21.296;2023-04-24T09:52:05;9.00;;;6.00;;
55007;SDS011;40902;45.116;21.296;2023-04-24T09:54:33;8.88;;;6.25;;
55007;SDS011;40902;45.116;21.296;2023-04-24T09:56:59;10.40;;;6.20;;
55007;SDS011;40902;45.116;21.296;2023-04-24T09:59:27;7.43;;;5.45;;
55007;SDS011;40902;45.116;21.296;2023-04-24T10:01:54;11.05;;;6.10;;
55007;SDS011;40902;45.116;21.296;2023-04-24T10:06:48;8.38;;;5.68;;
55007;SDS011;40902;45.116;21.296;2023-04-24T10:09:15;7.75;;;5.53;;
55007;SDS011;40902;45.116;21.296;2023-04-24T10:11:45;7.60;;;5.63;;
55007;SDS011;40902;45.116;21.296;2023-04-24T10:14:16;9.18;;;5.65;;
55007;SDS011;40902;45.116;21.296;2023-04-24T10:16:43;10.70;;;6.65;;
55007;SDS011;40902;45.116;21.296;2023-04-24T10:19:11;8.93;;;6.10;;
55007;SDS011;40902;45.116;21.296;2023-04-24T10:21:38;9.70;;;6.05;;
55007;SDS011;40902;45.116;21.296;2023-04-24T10:26:38;7.68;;;5.50;;
55007;SDS011;40902;45.116;21.296;2023-04-24T10:29:05;10.23;;;5.93;;
55007;SDS011;40902;45.116;21.296;2023-04-24T10:31:35;8.82;;;5.85;;
55007;SDS011;40902;45.116;21.296;2023-04-24T10:34:02;9.07;;;6.10;;
55007;SDS011;40902;45.116;21.296;2023-04-24T10:36:29;10.60;;;6.10;;
55007;SDS011;40902;45.116;21.296;2023-04-24T10:38:57;9.15;;;6.00;;
55007;SDS011;40902;45.116;21.296;2023-04-24T10:41:25;12.43;;;6.38;;
55007;SDS011;40902;45.116;21.296;2023-04-24T10:44:10;8.88;;;5.38;;
55007;SDS011;40902;45.116;21.296;2023-04-24T10:46:39;10.02;;;5.97;;
55007;SDS011;40902;45.116;21.296;2023-04-24T10:49:08;7.68;;;5.03;;
55007;SDS011;40902;45.116;21.296;2023-04-24T10:51:53;8.35;;;4.88;;
55007;SDS011;40902;45.116;21.296;2023-04-24T10:54:23;6.53;;;4.95;;
55007;SDS011;40902;45.116;21.296;2023-04-24T10:59:44;9.20;;;6.25;;
55007;SDS011;40902;45.116;21.296;2023-04-24T11:02:10;9.20;;;5.50;;
55007;SDS011;40902;45.116;21.296;2023-04-24T11:04:36;6.65;;;5.00;;
55007;SDS011;40902;45.116;21.296;2023-04-24T11:07:02;10.05;;;5.40;;
55007;SDS011;40902;45.116;21.296;2023-04-24T11:09:32;8.15;;;5.50;;
55007;SDS011;40902;45.116;21.296;2023-04-24T11:12:05;9.15;;;5.68;;
55007;SDS011;40902;45.116;21.296;2023-04-24T11:15:16;9.48;;;5.07;;
55007;SDS011;40902;45.116;21.296;2023-04-24T11:17:29;10.90;;;5.72;;
55007;SDS011;40902;45.116;21.296;2023-04-24T11:20:03;8.20;;;5.20;;
55007;SDS011;40902;45.116;21.296;2023-04-24T11:22:35;7.93;;;5.90;;
55007;SDS011;40902;45.116;21.296;2023-04-24T11:25:03;8.70;;;5.82;;
55007;SDS011;40902;45.116;21.296;2023-04-24T11:27:37;8.43;;;5.68;;
55007;SDS011;40902;45.116;21.296;2023-04-24T11:30:05;8.60;;;5.97;;
55007;SDS011;40902;45.116;21.296;2023-04-24T11:35:05;9.20;;;6.07;;
55007;SDS011;40902;45.116;21.296;2023-04-24T11:37:36;8.85;;;5.88;;
55007;SDS011;40902;45.116;21.296;2023-04-24T11:40:04;8.82;;;6.00;;
55007;SDS011;40902;45.116;21.296;2023-04-24T11:42:38;8.80;;;5.57;;
55007;SDS011;40902;45.116;21.296;2023-04-24T11:47:35;10.25;;;6.63;;
55007;SDS011;40902;45.116;21.296;2023-04-24T11:50:02;7.85;;;6.47;;
55007;SDS011;40902;45.116;21.296;2023-04-24T11:52:30;9.43;;;7.03;;
55007;SDS011;40902;45.116;21.296;2023-04-24T11:54:56;9.85;;;7.18;;
55007;SDS011;40902;45.116;21.296;2023-04-24T11:57:22;13.63;;;7.35;;
55007;SDS011;40902;45.116;21.296;2023-04-24T11:59:52;14.98;;;7.85;;
55007;SDS011;40902;45.116;21.296;2023-04-24T12:04:51;9.82;;;7.53;;
55007;SDS011;40902;45.116;21.296;2023-04-24T12:07:18;9.55;;;7.40;;
55007;SDS011;40902;45.116;21.296;2023-04-24T12:09:47;8.43;;;7.13;;
55007;SDS011;40902;45.116;21.296;2023-04-24T12:12:25;9.60;;;7.32;;
55007;SDS011;40902;45.116;21.296;2023-04-24T12:14:53;12.55;;;8.30;;
55007;SDS011;40902;45.116;21.296;2023-04-24T12:17:24;10.23;;;8.30;;
55007;SDS011;40902;45.116;21.296;2023-04-24T12:19:57;11.15;;;7.20;;
55007;SDS011;40902;45.116;21.296;2023-04-24T12:22:24;10.68;;;8.32;;
55007;SDS011;40902;45.116;21.296;2023-04-24T12:24:56;10.48;;;7.88;;
55007;SDS011;40902;45.116;21.296;2023-04-24T12:27:26;9.25;;;7.97;;
55007;SDS011;40902;45.116;21.296;2023-04-24T12:29:58;12.55;;;7.70;;
55007;SDS011;40902;45.116;21.296;2023-04-24T12:32:25;8.93;;;7.72;;
55007;SDS011;40902;45.116;21.296;2023-04-24T12:34:51;13.10;;;9.02;;
55007;SDS011;40902;45.116;21.296;2023-04-24T12:37:17;11.88;;;8.30;;
55007;SDS011;40902;45.116;21.296;2023-04-24T12:42:34;9.68;;;7.22;;
55007;SDS011;40902;45.116;21.296;2023-04-24T12:45:02;11.88;;;8.02;;
55007;SDS011;40902;45.116;21.296;2023-04-24T12:47:30;10.13;;;7.72;;
55007;SDS011;40902;45.116;21.296;2023-04-24T12:49:57;9.43;;;7.70;;
55007;SDS011;40902;45.116;21.296;2023-04-24T12:52:24;9.98;;;7.00;;
55007;SDS011;40902;45.116;21.296;2023-04-24T12:54:52;8.80;;;7.40;;
55007;SDS011;40902;45.116;21.296;2023-04-24T12:57:19;10.25;;;7.80;;
55007;SDS011;40902;45.116;21.296;2023-04-24T12:59:45;10.13;;;7.82;;
55007;SDS011;40902;45.116;21.296;2023-04-24T13:02:11;10.20;;;7.47;;
55007;SDS011;40902;45.116;21.296;2023-04-24T13:04:37;13.50;;;8.55;;
55007;SDS011;40902;45.116;21.296;2023-04-24T13:07:03;10.25;;;7.95;;
55007;SDS011;40902;45.116;21.296;2023-04-24T13:09:30;10.88;;;7.82;;
55007;SDS011;40902;45.116;21.296;2023-04-24T13:11:56;12.10;;;7.95;;
55007;SDS011;40902;45.116;21.296;2023-04-24T13:14:22;11.38;;;8.30;;
55007;SDS011;40902;45.116;21.296;2023-04-24T13:16:48;11.60;;;8.15;;
55007;SDS011;40902;45.116;21.296;2023-04-24T13:19:14;9.57;;;7.65;;
55007;SDS011;40902;45.116;21.296;2023-04-24T13:21:40;10.10;;;7.32;;
55007;SDS011;40902;45.116;21.296;2023-04-24T13:24:06;12.55;;;6.82;;
55007;SDS011;40902;45.116;21.296;2023-04-24T13:26:33;10.20;;;7.22;;
55007;SDS011;40902;45.116;21.296;2023-04-24T13:28:59;14.80;;;9.57;;
55007;SDS011;40902;45.116;21.296;2023-04-24T13:31:24;14.63;;;12.30;;
55007;SDS011;40902;45.116;21.296;2023-04-24T13:33:50;14.63;;;9.85;;
55007;SDS011;40902;45.116;21.296;2023-04-24T13:36:16;12.05;;;9.00;;
55007;SDS011;40902;45.116;21.296;2023-04-24T13:38:42;12.35;;;8.63;;
55007;SDS011;40902;45.116;21.296;2023-04-24T13:41:11;12.80;;;8.93;;
55007;SDS011;40902;45.116;21.296;2023-04-24T13:43:36;9.95;;;8.15;;
55007;SDS011;40902;45.116;21.296;2023-04-24T13:46:02;11.25;;;6.55;;
55007;SDS011;40902;45.116;21.296;2023-04-24T13:48:28;10.88;;;8.32;;
55007;SDS011;40902;45.116;21.296;2023-04-24T13:50:55;10.05;;;7.50;;
55007;SDS011;40902;45.116;21.296;2023-04-24T13:53:21;10.95;;;7.50;;
55007;SDS011;40902;45.116;21.296;2023-04-24T13:55:46;8.15;;;6.90;;
55007;SDS011;40902;45.116;21.296;2023-04-24T13:58:12;10.32;;;7.05;;
55007;SDS011;40902;45.116;21.296;2023-04-24T14:00:38;9.18;;;7.07;;
55007;SDS011;40902;45.116;21.296;2023-04-24T14:03:04;12.30;;;7.70;;
55007;SDS011;40902;45.116;21.296;2023-04-24T14:05:30;10.55;;;7.22;;
55007;SDS011;40902;45.116;21.296;2023-04-24T14:07:55;10.20;;;7.20;;
55007;SDS011;40902;45.116;21.296;2023-04-24T14:10:21;10.38;;;7.47;;
55007;SDS011;40902;45.116;21.296;2023-04-24T14:12:47;12.95;;;7.88;;
55007;SDS011;40902;45.116;21.296;2023-04-24T14:15:13;12.35;;;8.52;;
55007;SDS011;40902;45.116;21.296;2023-04-24T14:17:39;11.48;;;9.18;;
55007;SDS011;40902;45.116;21.296;2023-04-24T14:20:05;14.20;;;9.80;;
55007;SDS011;40902;45.116;21.296;2023-04-24T14:22:32;14.20;;;9.15;;
55007;SDS011;40902;45.116;21.296;2023-04-24T14:24:57;12.20;;;9.07;;
55007;SDS011;40902;45.116;21.296;2023-04-24T14:27:24;15.02;;;9.38;;
55007;SDS011;40902;45.116;21.296;2023-04-24T14:29:50;11.52;;;7.32;;
55007;SDS011;40902;45.116;21.296;2023-04-24T14:32:15;10.02;;;6.90;;
55007;SDS011;40902;45.116;21.296;2023-04-24T14:34:41;10.15;;;6.78;;
55007;SDS011;40902;45.116;21.296;2023-04-24T14:37:07;9.38;;;6.93;;
55007;SDS011;40902;45.116;21.296;2023-04-24T14:39:33;11.07;;;6.97;;
55007;SDS011;40902;45.116;21.296;2023-04-24T14:41:58;10.90;;;7.85;;
55007;SDS011;40902;45.116;21.296;2023-04-24T14:44:25;10.68;;;6.93;;
55007;SDS011;40902;45.116;21.296;2023-04-24T14:46:51;11.15;;;6.88;;
55007;SDS011;40902;45.116;21.296;2023-04-24T14:49:18;13.27;;;6.88;;